Time;durP1;ratioP1;P1;durP2;ratioP2;P2;SDS_P1;SDS_P2;PMS_P1;PMS_P2;Temp;Humidity;BMP_temperature;BMP_pressure;BME280_temperature;BME280_humidity;BME280_pressure;Samples;Min_cycle;Max_cycle;Signal;HPM_P1;HPM_P2
2022/04/02 00:01:59;;;;;;;7.75;6.55;;;3.70;99.90;;;;;;5051577;28;20619;-75
2022/04/02 00:04:24;;;;;;;7.83;7.13;;;3.70;99.90;;;;;;5053324;28;20680;-76
2022/04/02 00:06:50;;;;;;;7.80;6.73;;;3.70;99.90;;;;;;5053104;28;20215;-76
2022/04/02 00:09:16;;;;;;;6.10;5.45;;;3.80;99.90;;;;;;5051304;28;20204;-76
2022/04/02 00:11:43;;;;;;;6.40;5.80;;;3.70;99.90;;;;;;5052949;28;20161;-75
2022/04/02 00:14:08;;;;;;;6.95;6.25;;;3.70;99.90;;;;;;5051701;28;20165;-75
2022/04/02 00:16:34;;;;;;;6.43;5.80;;;3.80;99.90;;;;;;5040545;28;20238;-75
2022/04/02 00:19:00;;;;;;;6.60;5.87;;;3.80;99.90;;;;;;5051426;28;20613;-76
2022/04/02 00:21:26;;;;;;;6.80;6.20;;;3.70;99.90;;;;;;5038223;28;20205;-76
2022/04/02 00:23:52;;;;;;;6.27;5.60;;;3.80;99.90;;;;;;5041279;28;20177;-75
2022/04/02 00:26:20;;;;;;;6.70;5.97;;;3.80;99.90;;;;;;5030553;28;20722;-76
2022/04/02 00:28:48;;;;;;;9.50;7.13;;;3.80;99.90;;;;;;5051347;28;20191;-75
2022/04/02 00:31:15;;;;;;;6.53;5.88;;;3.70;99.90;;;;;;5044447;28;20634;-75
2022/04/02 00:33:43;;;;;;;5.43;5.03;;;3.70;99.90;;;;;;5020139;28;20189;-76
2022/04/02 00:36:10;;;;;;;8.32;5.53;;;3.70;99.90;;;;;;5042638;28;20177;-75
2022/04/02 00:38:38;;;;;;;6.70;6.10;;;3.80;99.90;;;;;;5046908;28;20185;-76
2022/04/02 00:41:04;;;;;;;7.28;5.07;;;3.80;99.90;;;;;;5043931;28;20197;-76
2022/04/02 00:43:36;;;;;;;6.80;5.97;;;3.70;99.90;;;;;;5051247;28;20181;-76
2022/04/02 00:46:07;;;;;;;5.63;5.13;;;3.70;99.90;;;;;;5051364;28;20172;-76
2022/04/02 00:48:33;;;;;;;7.57;6.97;;;3.80;99.90;;;;;;5051122;28;20216;-76
2022/04/02 00:51:02;;;;;;;6.22;5.63;;;3.70;99.90;;;;;;5051265;28;20176;-76
2022/04/02 00:53:36;;;;;;;8.05;5.75;;;3.70;99.90;;;;;;5051129;28;20590;-76
2022/04/02 00:56:04;;;;;;;8.93;6.90;;;3.70;99.90;;;;;;5052332;28;20172;-76
2022/04/02 00:58:30;;;;;;;5.78;5.28;;;3.70;99.90;;;;;;5051055;28;20191;-76
2022/04/02 01:00:58;;;;;;;6.70;5.75;;;3.70;99.90;;;;;;5050977;28;20622;-76
2022/04/02 01:03:27;;;;;;;6.97;5.85;;;3.70;99.90;;;;;;5034621;28;20179;-76
2022/04/02 01:05:56;;;;;;;7.30;6.18;;;3.70;99.90;;;;;;5034325;28;20718;-76
2022/04/02 01:08:26;;;;;;;6.85;6.25;;;3.70;99.90;;;;;;5050934;28;20296;-76
2022/04/02 01:10:55;;;;;;;8.57;7.07;;;3.70;99.90;;;;;;5052917;28;20216;-76
2022/04/02 01:13:22;;;;;;;6.18;5.60;;;3.70;99.90;;;;;;5061019;28;20583;-75
2022/04/02 01:15:49;;;;;;;6.90;6.25;;;3.70;99.90;;;;;;5042697;28;20187;-75
2022/04/02 01:18:16;;;;;;;8.50;7.60;;;3.70;99.90;;;;;;5065704;28;20205;-75
2022/04/02 01:20:43;;;;;;;7.72;6.90;;;3.70;99.90;;;;;;5049024;28;20196;-75
2022/04/02 01:23:09;;;;;;;7.30;5.30;;;3.70;99.90;;;;;;5056928;28;20196;-75
2022/04/02 01:25:41;;;;;;;7.05;5.97;;;3.70;99.90;;;;;;5052105;28;20579;-75
2022/04/02 01:28:15;;;;;;;6.50;5.40;;;3.70;99.90;;;;;;5039509;28;20702;-75
2022/04/02 01:30:43;;;;;;;7.65;6.18;;;3.70;99.90;;;;;;5051178;28;20176;-76
2022/04/02 01:33:09;;;;;;;7.83;6.93;;;3.70;99.90;;;;;;5051237;28;20169;-75
2022/04/02 01:35:34;;;;;;;6.00;5.50;;;3.70;99.90;;;;;;5050688;28;20173;-76
2022/04/02 01:38:12;;;;;;;7.18;5.85;;;3.70;99.90;;;;;;5050322;28;20238;-76
2022/04/02 01:40:38;;;;;;;5.57;5.07;;;3.70;99.90;;;;;;5050462;28;20204;-75
2022/04/02 01:43:06;;;;;;;6.65;5.97;;;3.60;99.90;;;;;;5050512;28;20162;-76
2022/04/02 01:45:33;;;;;;;6.40;5.80;;;3.70;99.90;;;;;;5050356;28;20180;-76
2022/04/02 01:48:02;;;;;;;6.50;5.30;;;3.60;99.90;;;;;;5017526;28;21006;-77
2022/04/02 01:50:41;;;;;;;6.72;5.85;;;3.60;99.90;;;;;;5034666;28;20177;-76
2022/04/02 01:53:07;;;;;;;6.90;5.50;;;3.60;99.90;;;;;;5051452;28;20172;-76
2022/04/02 01:55:33;;;;;;;7.77;6.67;;;3.60;99.90;;;;;;5049861;28;20173;-76
2022/04/02 01:58:11;;;;;;;5.45;4.95;;;3.60;99.90;;;;;;5049960;28;20205;-76
2022/04/02 02:00:42;;;;;;;9.25;6.72;;;3.50;99.90;;;;;;5049934;28;20208;-77
2022/04/02 02:03:08;;;;;;;5.80;5.30;;;3.60;99.90;;;;;;5050841;28;20165;-80
2022/04/02 02:05:35;;;;;;;6.77;6.23;;;3.50;99.90;;;;;;5050402;28;20165;-80
2022/04/02 02:08:02;;;;;;;8.73;5.97;;;3.50;99.90;;;;;;5049585;28;20618;-79
2022/04/02 02:10:48;;;;;;;7.57;5.40;;;3.50;99.90;;;;;;5050178;28;20169;-78
2022/04/02 02:13:42;;;;;;;4.97;4.25;;;3.40;99.90;;;;;;5050204;28;20177;-79
2022/04/02 02:16:13;;;;;;;5.95;5.38;;;3.50;99.90;;;;;;5050166;28;20169;-80
2022/04/02 02:18:39;;;;;;;8.23;5.38;;;3.50;99.90;;;;;;5049848;28;20196;-79
2022/04/02 02:21:04;;;;;;;4.73;4.30;;;3.40;99.90;;;;;;5033245;28;20201;-80
2022/04/02 02:23:30;;;;;;;5.60;5.10;;;3.50;99.90;;;;;;5034519;28;20564;-79
2022/04/02 02:25:56;;;;;;;6.90;5.17;;;3.50;99.90;;;;;;5057224;28;20176;-80
2022/04/02 02:28:24;;;;;;;6.43;5.78;;;3.40;99.90;;;;;;5054614;28;20181;-79
2022/04/02 02:30:54;;;;;;;5.07;4.40;;;3.50;99.90;;;;;;5037539;28;20184;-79
2022/04/02 02:36:05;;;;;;;6.18;5.35;;;3.50;99.90;;;;;;5053639;28;20177;-80
2022/04/02 02:38:43;;;;;;;6.30;5.05;;;3.50;99.90;;;;;;5053661;28;20192;-79
2022/04/02 02:41:14;;;;;;;5.90;4.88;;;3.50;99.90;;;;;;5054674;28;20228;-79
2022/04/02 02:43:46;;;;;;;4.90;4.50;;;3.50;99.90;;;;;;5037523;28;20206;-79
2022/04/02 02:46:23;;;;;;;6.10;5.28;;;3.50;99.90;;;;;;5053642;28;20171;-79
2022/04/02 02:48:57;;;;;;;5.68;5.15;;;3.50;99.90;;;;;;5053016;28;20280;-79
2022/04/02 02:51:23;;;;;;;7.05;4.10;;;3.50;99.90;;;;;;5053364;28;20587;-79
2022/04/02 02:53:50;;;;;;;4.78;4.20;;;3.50;99.90;;;;;;5053604;28;20539;-80
2022/04/02 02:56:16;;;;;;;5.03;4.38;;;3.50;99.90;;;;;;5053425;28;20195;-79
2022/04/02 02:58:42;;;;;;;6.67;5.07;;;3.40;99.90;;;;;;5053052;28;20879;-80
2022/04/02 03:01:09;;;;;;;5.55;5.05;;;3.40;99.90;;;;;;5036708;28;20246;-80
2022/04/02 03:03:34;;;;;;;5.43;4.93;;;3.40;99.90;;;;;;5024867;28;20682;-79
2022/04/02 03:06:01;;;;;;;3.80;3.50;;;3.50;99.90;;;;;;5053341;28;20173;-80
2022/04/02 03:08:33;;;;;;;4.55;4.00;;;3.40;99.90;;;;;;5020223;28;20663;-80
2022/04/02 03:11:01;;;;;;;4.50;3.60;;;3.40;99.90;;;;;;5052747;28;20173;-81
2022/04/02 03:13:31;;;;;;;4.60;4.03;;;3.50;99.90;;;;;;5020382;28;20168;-79
2022/04/02 03:16:10;;;;;;;4.60;3.63;;;3.40;99.90;;;;;;5053136;28;20196;-80
2022/04/02 03:19:00;;;;;;;3.80;3.45;;;3.40;99.90;;;;;;5035895;28;20193;-80
2022/04/02 03:21:28;;;;;;;4.45;3.80;;;3.50;99.90;;;;;;5033465;28;20200;-80
2022/04/02 03:23:55;;;;;;;6.03;4.18;;;3.40;99.90;;;;;;5034141;28;20177;-80
2022/04/02 03:26:21;;;;;;;4.35;3.70;;;3.40;99.90;;;;;;5032688;28;20178;-80
2022/04/02 03:28:49;;;;;;;5.18;3.80;;;3.40;99.90;;;;;;5016204;28;20540;-80
2022/04/02 03:31:17;;;;;;;4.60;3.67;;;3.40;99.90;;;;;;5032419;28;20193;-80
2022/04/02 03:33:44;;;;;;;7.13;3.22;;;3.40;99.90;;;;;;5034176;28;20181;-80
2022/04/02 03:36:11;;;;;;;6.20;3.25;;;3.40;99.90;;;;;;5032611;28;20208;-80
2022/04/02 03:38:38;;;;;;;3.58;2.88;;;3.40;99.90;;;;;;5015873;28;20194;-80
2022/04/02 03:41:13;;;;;;;3.65;3.30;;;3.50;99.90;;;;;;5037728;28;20206;-80
2022/04/02 03:43:39;;;;;;;4.32;2.75;;;3.50;99.90;;;;;;5014833;28;20194;-79
2022/04/02 03:48:50;;;;;;;3.47;2.53;;;3.50;99.90;;;;;;5025178;28;20619;-80
2022/04/02 03:51:17;;;;;;;3.85;2.97;;;3.50;99.90;;;;;;5033608;28;20165;-80
2022/04/02 03:53:44;;;;;;;5.00;3.38;;;3.50;99.90;;;;;;5032450;28;20173;-80
2022/04/02 03:56:10;;;;;;;3.83;2.90;;;3.60;99.90;;;;;;5032434;28;20211;-80
2022/04/02 03:58:47;;;;;;;4.30;3.20;;;3.60;99.90;;;;;;5032042;28;20646;-80
2022/04/02 04:01:15;;;;;;;4.38;2.50;;;3.60;99.90;;;;;;5032066;28;20623;-80
2022/04/02 04:03:42;;;;;;;4.40;3.55;;;3.60;99.90;;;;;;5032245;28;20657;-80
2022/04/02 04:06:09;;;;;;;3.20;2.53;;;3.60;99.90;;;;;;5015782;28;20177;-80
2022/04/02 04:08:40;;;;;;;3.08;1.98;;;3.60;99.90;;;;;;5031553;28;20202;-79
2022/04/02 04:11:06;;;;;;;3.35;1.73;;;3.60;99.90;;;;;;5031764;28;20186;-80
2022/04/02 04:13:35;;;;;;;3.15;2.40;;;3.70;99.90;;;;;;4999358;28;20670;-80
2022/04/02 04:16:03;;;;;;;2.25;1.80;;;3.70;99.90;;;;;;5051946;22;20305;-76
2022/04/02 04:18:31;;;;;;;2.42;2.00;;;3.70;99.90;;;;;;5041519;28;20555;-76
2022/04/02 04:20:57;;;;;;;3.47;2.63;;;3.70;99.90;;;;;;5031417;28;20209;-76
2022/04/02 04:23:27;;;;;;;5.03;2.85;;;3.80;99.90;;;;;;5031759;28;20208;-76
2022/04/02 04:25:57;;;;;;;4.60;2.00;;;3.80;99.90;;;;;;5042635;28;20190;-76
2022/04/02 04:28:24;;;;;;;2.35;2.03;;;3.80;99.90;;;;;;5048227;28;20602;-76
2022/04/02 04:30:55;;;;;;;5.55;2.00;;;3.80;99.90;;;;;;5051425;28;20200;-76
2022/04/02 04:33:21;;;;;;;2.55;1.90;;;3.80;99.90;;;;;;5052828;28;20180;-76
2022/04/02 04:35:46;;;;;;;2.53;2.00;;;3.80;99.90;;;;;;5053823;28;20628;-76
2022/04/02 04:38:13;;;;;;;4.32;2.70;;;3.80;99.90;;;;;;5045789;28;20629;-77
2022/04/02 04:40:39;;;;;;;4.78;2.47;;;3.80;99.90;;;;;;5043755;28;20617;-76
2022/04/02 04:43:07;;;;;;;2.45;2.15;;;3.80;99.90;;;;;;5039532;28;20177;-76
2022/04/02 04:45:37;;;;;;;3.40;2.03;;;3.80;99.90;;;;;;5043539;28;20281;-77
2022/04/02 04:48:04;;;;;;;2.08;1.73;;;3.80;99.90;;;;;;5049194;28;20199;-77
2022/04/02 04:50:35;;;;;;;4.75;2.00;;;3.80;99.90;;;;;;5040957;28;20177;-77
2022/04/02 04:53:02;;;;;;;3.33;2.03;;;3.80;99.90;;;;;;5036384;28;20256;-77
2022/04/02 04:55:29;;;;;;;3.45;1.58;;;3.80;99.90;;;;;;5038132;28;20289;-77
2022/04/02 04:57:56;;;;;;;2.47;1.42;;;3.80;99.90;;;;;;5043948;28;20238;-77
2022/04/02 05:00:26;;;;;;;3.47;2.15;;;3.80;99.90;;;;;;5047292;28;20291;-77
2022/04/02 05:02:52;;;;;;;3.50;1.60;;;3.70;99.90;;;;;;5035242;28;20184;-77
2022/04/02 05:05:27;;;;;;;3.65;2.15;;;3.70;99.90;;;;;;5026368;28;20622;-77
2022/04/02 05:07:53;;;;;;;3.08;1.83;;;3.70;99.90;;;;;;5039380;28;20181;-76
2022/04/02 05:10:21;;;;;;;3.08;1.95;;;3.70;99.90;;;;;;5045630;28;20653;-76
2022/04/02 05:12:48;;;;;;;3.17;1.52;;;3.70;99.90;;;;;;5054482;28;20178;-77
2022/04/02 05:15:14;;;;;;;4.43;2.65;;;3.70;99.90;;;;;;5045124;28;20189;-76
2022/04/02 05:17:43;;;;;;;5.47;1.83;;;3.70;99.90;;;;;;5037154;28;20186;-76
2022/04/02 05:20:11;;;;;;;2.72;1.88;;;3.70;99.90;;;;;;5040580;28;20256;-77
2022/04/02 05:22:38;;;;;;;2.20;1.48;;;3.70;99.90;;;;;;5050788;28;20204;-76
2022/04/02 05:25:05;;;;;;;2.53;2.10;;;3.70;99.90;;;;;;5052476;28;20161;-77
2022/04/02 05:27:33;;;;;;;2.35;1.52;;;3.70;99.90;;;;;;5052130;28;20572;-77
2022/04/02 05:30:03;;;;;;;2.55;1.80;;;3.70;99.90;;;;;;5051517;28;20211;-77
2022/04/02 05:32:30;;;;;;;3.58;1.70;;;3.70;99.90;;;;;;5053917;28;20732;-77
2022/04/02 05:34:56;;;;;;;2.20;1.58;;;3.70;99.90;;;;;;5040286;28;20577;-77
2022/04/02 05:37:23;;;;;;;2.40;2.08;;;3.70;99.90;;;;;;5060537;28;20169;-77
2022/04/02 05:39:49;;;;;;;2.33;1.50;;;3.70;99.90;;;;;;5058365;28;20161;-76
2022/04/02 05:42:15;;;;;;;2.40;1.55;;;3.70;99.90;;;;;;5060908;28;20611;-77
2022/04/02 05:44:42;;;;;;;2.70;1.60;;;3.70;99.90;;;;;;5062674;28;20165;-77
2022/04/02 05:47:12;;;;;;;4.68;2.20;;;3.80;99.90;;;;;;5056686;28;20188;-77
2022/04/02 05:49:37;;;;;;;2.88;1.92;;;3.80;99.90;;;;;;5061138;28;20161;-77
2022/04/02 05:52:04;;;;;;;3.30;2.00;;;3.80;99.90;;;;;;5059351;28;20188;-77
2022/04/02 05:54:31;;;;;;;3.60;2.25;;;3.80;99.90;;;;;;5041194;28;20181;-76
2022/04/02 05:56:57;;;;;;;2.35;1.80;;;3.80;99.90;;;;;;5059153;28;20181;-76
2022/04/02 05:59:24;;;;;;;2.30;1.52;;;3.80;99.90;;;;;;5061866;28;20769;-77
2022/04/02 06:01:50;;;;;;;2.00;1.60;;;3.80;99.90;;;;;;5063700;28;20204;-76
2022/04/02 06:04:16;;;;;;;3.07;2.30;;;3.80;99.90;;;;;;5057302;28;20535;-76
2022/04/02 06:06:42;;;;;;;2.23;2.00;;;3.80;99.90;;;;;;5061476;28;20192;-77
2022/04/02 06:09:07;;;;;;;3.60;1.77;;;3.80;99.90;;;;;;5069432;28;20614;-77
2022/04/02 06:11:33;;;;;;;5.10;1.63;;;3.80;99.90;;;;;;5070818;28;20652;-78
2022/04/02 06:13:59;;;;;;;2.33;1.63;;;3.80;99.90;;;;;;5068207;28;20183;-77
2022/04/02 06:16:25;;;;;;;3.43;2.13;;;3.80;99.90;;;;;;5064462;28;20630;-77
2022/04/02 06:18:55;;;;;;;3.20;1.95;;;3.90;99.90;;;;;;5064477;28;20571;-77
2022/04/02 06:21:21;;;;;;;3.88;2.03;;;3.90;99.90;;;;;;5063543;28;20240;-77
2022/04/02 06:23:47;;;;;;;2.57;2.30;;;3.90;99.90;;;;;;5061462;28;20169;-77
2022/04/02 06:26:12;;;;;;;3.33;2.17;;;3.90;99.90;;;;;;5063912;28;20200;-77
2022/04/02 06:28:39;;;;;;;2.43;2.20;;;4.00;99.90;;;;;;5063019;28;20169;-77
2022/04/02 06:31:05;;;;;;;4.25;2.40;;;4.00;99.90;;;;;;5062214;28;20199;-76
2022/04/02 06:33:37;;;;;;;4.43;2.50;;;4.00;99.90;;;;;;5056818;28;20183;-76
2022/04/02 06:36:07;;;;;;;2.60;1.70;;;4.00;99.90;;;;;;5056420;28;20623;-77
2022/04/02 06:38:34;;;;;;;2.40;1.60;;;4.00;99.90;;;;;;5063645;28;20181;-77
2022/04/02 06:41:00;;;;;;;2.70;1.55;;;4.00;99.90;;;;;;5065139;28;20232;-77
2022/04/02 06:43:26;;;;;;;2.38;1.95;;;4.00;99.90;;;;;;5047578;28;20298;-77
2022/04/02 06:45:57;;;;;;;2.10;1.88;;;4.10;99.90;;;;;;5064394;28;20177;-76
2022/04/02 06:48:23;;;;;;;3.63;1.60;;;4.00;99.90;;;;;;5062603;28;20176;-77
2022/04/02 06:50:48;;;;;;;2.37;1.60;;;4.10;99.90;;;;;;5063663;28;20168;-77
2022/04/02 06:53:14;;;;;;;2.53;1.87;;;4.10;99.90;;;;;;5059624;28;20796;-76
2022/04/02 06:55:40;;;;;;;4.13;2.10;;;4.20;99.90;;;;;;5061164;28;20191;-77
2022/04/02 06:58:06;;;;;;;2.70;1.83;;;4.20;99.90;;;;;;5042624;28;20184;-77
2022/04/02 07:00:32;;;;;;;2.50;1.77;;;4.20;99.90;;;;;;5058043;28;20625;-77
2022/04/02 07:02:57;;;;;;;3.05;2.20;;;4.30;99.90;;;;;;5059858;28;20589;-77
2022/04/02 07:05:23;;;;;;;3.00;2.13;;;4.30;99.90;;;;;;5049841;28;20197;-77
2022/04/02 07:07:49;;;;;;;3.55;2.55;;;4.30;99.90;;;;;;5032818;28;20169;-77
2022/04/02 07:10:15;;;;;;;4.97;2.63;;;4.40;99.90;;;;;;5056112;28;20258;-77
2022/04/02 07:12:41;;;;;;;3.30;1.97;;;4.40;99.90;;;;;;5043698;28;20166;-76
2022/04/02 07:15:08;;;;;;;2.53;1.80;;;4.50;99.90;;;;;;5042141;28;20176;-77
2022/04/02 07:17:34;;;;;;;2.53;1.70;;;4.50;99.90;;;;;;5024873;28;20172;-76
2022/04/02 07:20:00;;;;;;;2.27;1.53;;;4.60;99.90;;;;;;5041645;28;20162;-76
2022/04/02 07:22:27;;;;;;;2.33;1.85;;;4.60;99.90;;;;;;5038953;28;20624;-77
2022/04/02 07:24:54;;;;;;;1.70;1.10;;;4.70;99.90;;;;;;5036681;28;20257;-76
2022/04/02 07:27:27;;;;;;;5.28;3.30;;;4.80;99.90;;;;;;5037264;28;20686;-77
2022/04/02 07:29:55;;;;;;;2.67;1.85;;;4.80;99.90;;;;;;5037937;28;20183;-77
2022/04/02 07:32:21;;;;;;;3.38;1.55;;;4.80;99.90;;;;;;5036360;28;20189;-77
2022/04/02 07:34:48;;;;;;;2.10;1.83;;;4.90;99.90;;;;;;5037176;28;20177;-77
2022/04/02 07:37:44;;;;;;;2.30;1.60;;;4.90;99.90;;;;;;5036302;28;20176;-77
2022/04/02 07:40:19;;;;;;;2.10;1.70;;;4.90;99.90;;;;;;5036237;28;20185;-77
2022/04/02 07:42:57;;;;;;;5.22;2.42;;;4.90;99.90;;;;;;5039059;28;20181;-77
2022/04/02 07:45:30;;;;;;;2.95;2.10;;;5.00;99.90;;;;;;5038474;28;20548;-77
2022/04/02 07:47:57;;;;;;;3.95;2.05;;;5.00;99.90;;;;;;5040670;28;20176;-77
2022/04/02 07:50:25;;;;;;;4.32;2.38;;;5.00;99.90;;;;;;5037083;28;20169;-77
2022/04/02 07:52:54;;;;;;;2.60;2.10;;;5.10;99.90;;;;;;5033212;28;20177;-77
2022/04/02 07:55:24;;;;;;;3.75;2.35;;;5.10;99.90;;;;;;5035210;28;20215;-76
2022/04/02 07:57:53;;;;;;;2.15;1.65;;;5.20;99.90;;;;;;5035314;28;20537;-76
2022/04/02 08:00:20;;;;;;;2.90;1.90;;;5.30;99.90;;;;;;5034695;28;20166;-76
2022/04/02 08:02:48;;;;;;;2.58;1.77;;;5.40;99.90;;;;;;5035301;28;20636;-76
2022/04/02 08:05:22;;;;;;;2.33;2.00;;;5.60;99.90;;;;;;5016681;28;20196;-76
2022/04/02 08:07:55;;;;;;;4.50;2.28;;;5.80;99.90;;;;;;5016917;28;20181;-77
2022/04/02 08:10:24;;;;;;;3.67;2.47;;;6.00;99.90;;;;;;5032959;28;20249;-77
2022/04/02 08:12:52;;;;;;;2.08;1.85;;;6.20;99.90;;;;;;5033139;28;20177;-76
2022/04/02 08:15:20;;;;;;;3.20;2.00;;;6.30;99.90;;;;;;5034599;28;20685;-77
2022/04/02 08:17:48;;;;;;;4.38;2.70;;;6.50;99.90;;;;;;5043282;28;20639;-76
2022/04/02 08:20:17;;;;;;;2.33;1.80;;;6.60;99.90;;;;;;5033101;28;20624;-77
2022/04/02 08:22:44;;;;;;;2.17;1.95;;;6.90;99.90;;;;;;5031626;28;20189;-76
2022/04/02 08:25:11;;;;;;;3.88;2.35;;;7.00;99.90;;;;;;5032151;28;20186;-77
2022/04/02 08:27:46;;;;;;;2.05;1.73;;;7.20;99.90;;;;;;5032199;28;20174;-76
2022/04/02 08:30:17;;;;;;;4.43;1.75;;;7.30;99.90;;;;;;5031954;28;20513;-77
2022/04/02 08:33:20;;;;;;;2.40;2.20;;;7.40;99.90;;;;;;5032641;28;20177;-77
2022/04/02 08:35:54;;;;;;;2.55;1.60;;;7.50;99.90;;;;;;5033180;28;20727;-77
2022/04/02 08:38:52;;;;;;;2.03;1.58;;;7.60;99.90;;;;;;5032428;28;20208;-76
2022/04/02 08:41:51;;;;;;;3.30;2.10;;;7.60;99.90;;;;;;5032585;28;20279;-77
2022/04/02 08:45:00;;;;;;;1.88;1.30;;;7.50;99.90;;;;;;5033465;28;20174;-76
2022/04/02 08:47:49;;;;;;;2.45;2.00;;;7.50;99.90;;;;;;5035090;28;20522;-76
2022/04/02 08:50:16;;;;;;;4.97;1.90;;;7.60;99.90;;;;;;5032503;28;20201;-77
2022/04/02 08:52:51;;;;;;;3.05;2.20;;;7.50;99.90;;;;;;5032033;28;20162;-76
2022/04/02 08:55:27;;;;;;;2.55;1.75;;;7.50;99.90;;;;;;5033872;28;20205;-76
2022/04/02 08:57:52;;;;;;;4.43;2.58;;;7.40;99.90;;;;;;5030545;28;20177;-76
2022/04/02 09:00:27;;;;;;;5.17;2.20;;;7.50;99.90;;;;;;5032696;28;20166;-76
2022/04/02 09:03:21;;;;;;;2.05;1.45;;;7.40;99.90;;;;;;5033899;28;20799;-76
2022/04/02 09:06:12;;;;;;;3.35;2.15;;;7.40;99.90;;;;;;5033608;28;20208;-78
2022/04/02 09:08:50;;;;;;;2.72;1.83;;;7.20;99.90;;;;;;5034428;28;20577;-76
2022/04/02 09:11:41;;;;;;;2.33;1.77;;;7.30;99.90;;;;;;5033188;28;20571;-76
2022/04/02 09:14:28;;;;;;;4.50;2.20;;;7.30;99.90;;;;;;5032301;28;20182;-76
2022/04/02 09:17:01;;;;;;;2.97;1.58;;;7.20;99.90;;;;;;5025704;28;20209;-76
2022/04/02 09:19:43;;;;;;;2.03;1.20;;;7.20;99.90;;;;;;5031123;28;20174;-76
2022/04/02 09:22:56;;;;;;;3.67;3.38;;;7.10;99.90;;;;;;5035321;28;20206;-76
2022/04/02 09:25:35;;;;;;;3.25;1.88;;;7.00;99.90;;;;;;4964529;28;20196;-76
2022/04/02 09:28:33;;;;;;;2.20;1.60;;;7.00;99.90;;;;;;4957363;28;20186;-76
2022/04/02 09:31:13;;;;;;;2.70;1.92;;;7.00;99.90;;;;;;5027403;28;20299;-76
2022/04/02 09:33:39;;;;;;;3.00;1.80;;;7.10;99.90;;;;;;5034310;28;20166;-77
2022/04/02 09:36:14;;;;;;;2.63;1.50;;;7.10;99.90;;;;;;5029214;28;20197;-77
2022/04/02 09:39:17;;;;;;;5.05;1.83;;;7.20;99.90;;;;;;5035009;28;20231;-76
2022/04/02 09:41:53;;;;;;;4.75;2.00;;;7.20;99.90;;;;;;5033025;28;20764;-76
2022/04/02 09:44:38;;;;;;;2.70;1.40;;;7.40;99.90;;;;;;5035483;28;20169;-76
2022/04/02 09:47:19;;;;;;;2.20;1.92;;;7.50;99.90;;;;;;5034066;28;20650;-76
2022/04/02 09:49:54;;;;;;;3.00;2.10;;;7.70;99.90;;;;;;5032486;28;20170;-76
2022/04/02 09:52:23;;;;;;;2.53;1.75;;;7.90;99.90;;;;;;5034487;28;20558;-76
2022/04/02 09:55:12;;;;;;;2.50;1.65;;;8.10;99.90;;;;;;5031754;28;20633;-76
2022/04/02 09:57:56;;;;;;;5.63;2.10;;;8.30;99.90;;;;;;5031474;28;20224;-76
2022/04/02 10:00:29;;;;;;;3.28;1.55;;;8.70;99.90;;;;;;5034617;28;20170;-76
2022/04/02 10:03:06;;;;;;;2.15;1.63;;;8.90;99.90;;;;;;5017335;28;20193;-76
2022/04/02 10:06:03;;;;;;;1.77;1.38;;;9.20;99.90;;;;;;5034847;28;20188;-76
2022/04/02 10:08:47;;;;;;;5.57;1.80;;;9.40;99.90;;;;;;5038405;28;20239;-76
2022/04/02 10:11:18;;;;;;;1.90;1.42;;;9.50;99.90;;;;;;5032719;28;20201;-76
2022/04/02 10:13:44;;;;;;;4.28;1.60;;;9.70;99.90;;;;;;5031973;28;20256;-76
2022/04/02 10:16:13;;;;;;;1.80;1.60;;;9.90;99.90;;;;;;5033907;28;20247;-76
2022/04/02 10:18:41;;;;;;;2.40;1.60;;;10.00;99.90;;;;;;5031974;28;20197;-76
2022/04/02 10:21:09;;;;;;;2.45;2.00;;;10.10;99.90;;;;;;5031161;28;20574;-76
2022/04/02 10:23:37;;;;;;;2.75;1.50;;;10.20;99.90;;;;;;5014375;28;20182;-76
2022/04/02 10:26:08;;;;;;;4.07;1.85;;;10.10;99.90;;;;;;5030063;28;20182;-76
2022/04/02 10:29:02;;;;;;;2.05;1.65;;;10.10;99.90;;;;;;5030929;28;20642;-76
2022/04/02 10:31:33;;;;;;;2.25;1.60;;;10.20;99.90;;;;;;5029779;28;20213;-76
2022/04/02 10:34:33;;;;;;;2.30;1.70;;;10.30;99.90;;;;;;5031279;28;20684;-76
2022/04/02 10:37:09;;;;;;;2.10;1.20;;;10.50;99.90;;;;;;4999364;28;20565;-77
2022/04/02 10:39:45;;;;;;;2.70;1.42;;;10.70;99.90;;;;;;5044574;28;20180;-77
2022/04/02 10:42:17;;;;;;;2.15;0.90;;;11.00;99.90;;;;;;5031099;28;20212;-77
2022/04/02 10:44:58;;;;;;;2.97;1.60;;;11.30;99.90;;;;;;5036818;28;20490;-77
2022/04/02 10:47:28;;;;;;;2.28;1.42;;;11.30;99.90;;;;;;5034858;28;20193;-77
2022/04/02 10:50:03;;;;;;;3.42;1.45;;;11.30;99.90;;;;;;5034844;28;20188;-77
2022/04/02 10:52:30;;;;;;;2.10;1.80;;;11.30;96.80;;;;;;5034670;28;20177;-77
2022/04/02 10:54:56;;;;;;;3.78;1.40;;;11.30;99.90;;;;;;5033158;28;20186;-77
2022/04/02 10:57:22;;;;;;;2.63;1.30;;;11.30;99.90;;;;;;5034370;28;20169;-77
2022/04/02 10:59:48;;;;;;;3.03;1.33;;;11.30;99.90;;;;;;5034303;28;20184;-78
2022/04/02 11:02:22;;;;;;;2.67;1.67;;;11.30;99.90;;;;;;5032417;28;20664;-77
2022/04/02 11:05:03;;;;;;;2.67;1.20;;;11.50;99.90;;;;;;5027083;28;20579;-78
2022/04/02 11:07:30;;;;;;;2.55;1.55;;;11.60;99.90;;;;;;5038112;28;20173;-77
2022/04/02 11:10:00;;;;;;;2.10;1.27;;;11.70;99.90;;;;;;5030096;28;20538;-78
2022/04/02 11:12:39;;;;;;;2.95;1.38;;;11.90;99.90;;;;;;5037530;28;20180;-77
2022/04/02 11:15:24;;;;;;;2.90;1.30;;;12.00;99.90;;;;;;5031024;28;20232;-78
2022/04/02 11:17:52;;;;;;;5.80;2.05;;;12.00;99.90;;;;;;5025636;28;20191;-78
2022/04/02 11:20:21;;;;;;;2.83;1.90;;;12.00;99.90;;;;;;5016170;28;20174;-78
2022/04/02 11:22:54;;;;;;;2.17;1.55;;;12.10;99.90;;;;;;5037879;28;20192;-78
2022/04/02 11:25:24;;;;;;;2.42;1.60;;;12.00;96.40;;;;;;5034039;28;20193;-78
2022/04/02 11:27:51;;;;;;;2.58;1.88;;;12.10;99.40;;;;;;5032474;28;20174;-78
2022/04/02 11:30:19;;;;;;;2.63;1.30;;;12.10;98.40;;;;;;5032656;28;20186;-78
2022/04/02 11:32:46;;;;;;;3.13;1.60;;;12.00;97.90;;;;;;5031811;28;20596;-78
2022/04/02 11:35:22;;;;;;;2.88;1.52;;;12.10;99.50;;;;;;5031466;28;20202;-78
2022/04/02 11:37:57;;;;;;;3.65;1.50;;;12.20;97.60;;;;;;5024325;28;20177;-77
2022/04/02 11:40:26;;;;;;;3.75;1.65;;;12.30;96.50;;;;;;5032263;28;20173;-79
2022/04/02 11:42:54;;;;;;;2.50;1.58;;;12.40;97.30;;;;;;5012852;28;20176;-79
2022/04/02 11:45:20;;;;;;;2.38;1.30;;;12.60;97.90;;;;;;5013818;28;20518;-77
2022/04/02 11:47:49;;;;;;;3.63;1.85;;;12.70;99.20;;;;;;5013444;28;20578;-78
2022/04/02 11:50:24;;;;;;;2.65;1.67;;;12.60;95.00;;;;;;5013792;28;20166;-79
2022/04/02 11:52:58;;;;;;;2.92;1.70;;;12.50;94.00;;;;;;5013762;28;20185;-78
2022/04/02 11:55:26;;;;;;;3.53;1.95;;;12.40;95.00;;;;;;5014218;28;20595;-77
2022/04/02 11:57:58;;;;;;;2.63;1.80;;;12.40;96.90;;;;;;5013488;28;20206;-79
2022/04/02 12:00:26;;;;;;;2.13;1.45;;;12.40;96.30;;;;;;5036114;28;20199;-79
2022/04/02 12:02:52;;;;;;;1.67;1.20;;;12.50;96.40;;;;;;5033322;28;20177;-79
2022/04/02 12:05:20;;;;;;;4.00;2.00;;;12.60;97.50;;;;;;5033180;28;20335;-79
2022/04/02 12:07:48;;;;;;;2.30;1.50;;;12.70;95.60;;;;;;5033581;28;20188;-78
2022/04/02 12:10:16;;;;;;;2.03;1.30;;;12.70;95.50;;;;;;5034903;28;20166;-82
2022/04/02 12:12:51;;;;;;;3.35;1.55;;;12.90;97.90;;;;;;5038645;28;20584;-79
2022/04/02 12:15:17;;;;;;;1.60;1.17;;;13.10;95.20;;;;;;5033768;28;20682;-78
2022/04/02 12:17:59;;;;;;;2.93;1.53;;;13.20;96.50;;;;;;5029517;28;20580;-78
2022/04/02 12:20:31;;;;;;;2.33;1.80;;;13.20;92.70;;;;;;5030268;28;20588;-78
2022/04/02 12:23:16;;;;;;;2.63;1.92;;;13.00;93.20;;;;;;5029694;28;20181;-80
2022/04/02 12:25:53;;;;;;;3.47;2.05;;;12.70;90.90;;;;;;5032737;28;20225;-80
2022/04/02 12:28:20;;;;;;;2.70;1.63;;;12.30;91.00;;;;;;5032726;28;20165;-80
2022/04/02 12:30:48;;;;;;;4.18;2.30;;;11.90;90.90;;;;;;5032611;28;20288;-79
2022/04/02 12:33:34;;;;;;;6.32;2.38;;;11.60;91.10;;;;;;5032482;28;20170;-79
2022/04/02 12:36:05;;;;;;;2.42;1.95;;;11.10;90.10;;;;;;5036484;28;20226;-79
2022/04/02 12:38:39;;;;;;;3.05;2.03;;;10.80;91.50;;;;;;5014870;28;20216;-77
2022/04/02 12:41:17;;;;;;;2.70;1.83;;;10.60;91.20;;;;;;5032316;28;20200;-79
2022/04/02 12:43:47;;;;;;;2.90;2.45;;;10.40;92.20;;;;;;5032666;28;20566;-78
2022/04/02 12:46:27;;;;;;;2.40;1.80;;;10.30;92.20;;;;;;5031127;28;20204;-78
2022/04/02 12:48:53;;;;;;;3.40;2.38;;;10.20;92.40;;;;;;5030618;28;20169;-77
2022/04/02 12:51:19;;;;;;;3.83;2.00;;;10.10;92.50;;;;;;4998105;28;20653;-77
2022/04/02 12:53:49;;;;;;;3.22;2.22;;;9.90;93.80;;;;;;5031944;28;20193;-78
2022/04/02 12:56:20;;;;;;;3.22;2.10;;;9.80;93.70;;;;;;5014541;28;20288;-79
2022/04/02 12:58:48;;;;;;;2.20;1.80;;;9.80;93.80;;;;;;5030536;28;20216;-79
2022/04/02 13:01:15;;;;;;;2.78;2.17;;;9.70;93.80;;;;;;5014751;28;20201;-79
2022/04/02 13:03:50;;;;;;;2.53;2.00;;;9.60;93.90;;;;;;5031971;28;20585;-78
2022/04/02 13:06:20;;;;;;;3.58;2.50;;;9.50;94.30;;;;;;5039754;28;20181;-80
2022/04/02 13:09:23;;;;;;;3.22;2.00;;;9.50;94.40;;;;;;5037793;28;20173;-79
2022/04/02 13:12:02;;;;;;;3.55;2.53;;;9.40;94.30;;;;;;5033505;28;20216;-79
2022/04/02 13:14:42;;;;;;;2.00;1.80;;;9.30;93.60;;;;;;5035355;28;20210;-79
2022/04/02 13:17:19;;;;;;;3.85;2.05;;;9.30;94.40;;;;;;5031693;28;20220;-78
2022/04/02 13:22:47;;;;;;;3.10;2.45;;;9.30;94.80;;;;;;5031850;28;20193;-78
2022/04/02 13:25:25;;;;;;;2.50;2.30;;;9.30;95.10;;;;;;5031634;28;20677;-78